Time;durP1;ratioP1;P1;durP2;ratioP2;P2;SDS_P1;SDS_P2;PMS_P1;PMS_P2;Temp;Humidity;BMP_temperature;BMP_pressure;BME280_temperature;BME280_humidity;BME280_pressure;Samples;Min_cycle;Max_cycle;Signal;HPM_P1;HPM_P2
2023/06/06 00:02:19;;;;;;;7.22;4.05;;;;;;;18.85;100.00;100819.28;5033398;28;20046;-84
2023/06/06 00:04:49;;;;;;;4.38;3.28;;;;;;;18.72;100.00;100814.75;5019160;28;20045;-84
2023/06/06 00:07:18;;;;;;;6.70;3.80;;;;;;;18.80;100.00;100811.97;5054115;28;20399;-84
2023/06/06 00:09:46;;;;;;;6.40;4.45;;;;;;;18.85;100.00;100810.13;5052628;28;20389;-84
2023/06/06 00:12:14;;;;;;;4.50;3.80;;;;;;;18.74;100.00;100807.72;5052812;28;20041;-84
2023/06/06 00:14:42;;;;;;;5.15;4.22;;;;;;;18.67;100.00;100811.00;5036448;28;20057;-83
2023/06/06 00:17:10;;;;;;;5.57;4.03;;;;;;;18.61;100.00;100808.72;5035682;28;20041;-84
2023/06/06 00:19:42;;;;;;;4.70;4.10;;;;;;;18.62;100.00;100799.28;5033290;28;20053;-84
2023/06/06 00:22:10;;;;;;;4.40;3.97;;;;;;;18.67;100.00;100810.16;5032085;28;20057;-84
2023/06/06 00:24:38;;;;;;;4.38;3.80;;;;;;;18.75;100.00;100812.13;5033031;28;20072;-84
2023/06/06 00:27:06;;;;;;;4.85;3.80;;;;;;;18.74;100.00;100802.19;5033437;28;20053;-85
2023/06/06 00:29:34;;;;;;;5.28;3.67;;;;;;;18.76;100.00;100805.44;5015527;28;20060;-84
2023/06/06 00:32:03;;;;;;;7.68;4.70;;;;;;;18.78;100.00;100799.56;5026247;28;20399;-85
2023/06/06 00:34:31;;;;;;;7.20;4.30;;;;;;;18.74;100.00;100807.72;5052439;28;20064;-84
2023/06/06 00:36:59;;;;;;;6.07;4.00;;;;;;;18.69;100.00;100812.63;5034836;28;20049;-84
2023/06/06 00:39:27;;;;;;;5.35;4.10;;;;;;;18.62;100.00;100810.38;5015736;28;20041;-85
2023/06/06 00:41:56;;;;;;;8.27;5.18;;;;;;;18.71;100.00;100807.59;5035839;28;20137;-84
2023/06/06 00:44:24;;;;;;;7.97;4.88;;;;;;;18.58;100.00;100798.31;5035893;28;20044;-85
2023/06/06 00:46:52;;;;;;;6.50;4.60;;;;;;;18.59;100.00;100798.00;5052465;28;20431;-84
2023/06/06 00:49:23;;;;;;;8.30;5.40;;;;;;;18.63;100.00;100804.47;5034879;28;20079;-84
2023/06/06 00:51:51;;;;;;;8.57;5.70;;;;;;;18.67;100.00;100801.84;5039037;28;20475;-84
2023/06/06 00:54:19;;;;;;;8.20;5.60;;;;;;;18.71;100.00;100800.06;5014991;28;20057;-85
2023/06/06 00:56:50;;;;;;;8.23;5.40;;;;;;;18.71;100.00;100805.59;5015309;28;20049;-84
2023/06/06 00:59:23;;;;;;;9.00;6.05;;;;;;;18.68;100.00;100797.97;5014961;28;20062;-84
2023/06/06 01:01:51;;;;;;;9.50;5.88;;;;;;;18.65;100.00;100802.22;5032352;28;20368;-84
2023/06/06 01:04:20;;;;;;;8.23;6.13;;;;;;;18.65;100.00;100796.66;5034315;28;20044;-84
2023/06/06 01:06:49;;;;;;;9.18;6.80;;;;;;;18.67;100.00;100801.84;5031616;28;20049;-84
2023/06/06 01:09:19;;;;;;;8.63;6.20;;;;;;;18.67;100.00;100791.59;5032089;28;20109;-84
2023/06/06 01:11:56;;;;;;;8.98;6.32;;;;;;;18.74;100.00;100796.66;5032758;28;20045;-84
2023/06/06 01:14:50;;;;;;;12.98;7.45;;;;;;;18.69;100.00;100790.44;4998857;28;20578;-84
2023/06/06 01:17:25;;;;;;;9.23;6.07;;;;;;;18.72;100.00;100787.81;5013371;28;20045;-86
2023/06/06 01:19:57;;;;;;;11.40;7.07;;;;;;;18.79;100.00;100788.16;5031782;28;20049;-83
2023/06/06 01:22:27;;;;;;;9.85;6.78;;;;;;;18.75;100.00;100787.19;5032553;28;20476;-77
2023/06/06 01:24:56;;;;;;;10.00;7.25;;;;;;;18.69;100.00;100790.44;5014782;28;20045;-85
2023/06/06 01:27:28;;;;;;;12.50;7.15;;;;;;;18.74;100.00;100785.56;5011481;28;20507;-87
2023/06/06 01:29:56;;;;;;;10.13;6.85;;;;;;;18.72;100.00;100787.03;5014756;28;20053;-87
2023/06/06 01:32:49;;;;;;;12.15;7.05;;;;;;;18.67;100.00;100788.81;5025395;28;20056;-96
2023/06/06 01:35:49;;;;;;;10.23;7.35;;;;;;;18.66;100.00;100786.38;5051132;28;20037;-78
2023/06/06 01:38:23;;;;;;;10.85;8.15;;;;;;;18.65;100.00;100776.44;4961597;29;20047;-95
2023/06/06 01:40:54;;;;;;;8.75;6.72;;;;;;;18.68;100.00;100781.34;4946500;29;20058;-96
2023/06/06 01:43:25;;;;;;;12.43;7.00;;;;;;;18.67;100.00;100779.69;4945757;29;20047;-85
2023/06/06 01:45:56;;;;;;;12.10;6.72;;;;;;;18.63;100.00;100779.53;4921662;29;20486;-85
2023/06/06 01:48:25;;;;;;;10.57;6.45;;;;;;;18.60;100.00;100780.22;4922226;29;20051;-85
2023/06/06 01:50:54;;;;;;;9.75;6.85;;;;;;;18.58;100.00;100784.44;4921822;29;20055;-85
2023/06/06 01:53:22;;;;;;;9.68;5.90;;;;;;;18.56;100.00;100770.13;4921341;29;20074;-86
2023/06/06 01:55:51;;;;;;;8.57;6.10;;;;;;;18.53;100.00;100774.38;4921812;29;20054;-86
2023/06/06 01:58:20;;;;;;;9.98;6.18;;;;;;;18.66;100.00;100766.97;4921488;29;20062;-85
2023/06/06 02:00:48;;;;;;;7.05;5.50;;;;;;;18.62;100.00;100769.59;4921218;29;20062;-86
2023/06/06 02:03:16;;;;;;;7.28;5.93;;;;;;;18.69;100.00;100777.41;4921636;29;20051;-86
2023/06/06 02:05:46;;;;;;;8.65;5.65;;;;;;;18.70;100.00;100767.13;4921904;29;20058;-86
2023/06/06 02:08:14;;;;;;;8.57;5.63;;;;;;;18.67;100.00;100771.38;4921948;29;20043;-86
2023/06/06 02:10:42;;;;;;;8.52;5.97;;;;;;;18.63;100.00;100778.75;4921744;29;20051;-86
2023/06/06 02:13:10;;;;;;;8.40;6.15;;;;;;;18.75;100.00;100781.63;4921646;29;20047;-86
2023/06/06 02:15:38;;;;;;;9.10;5.88;;;;;;;18.80;100.00;100773.16;4921425;29;20138;-85
2023/06/06 02:18:06;;;;;;;7.40;5.97;;;;;;;18.74;100.00;100771.69;4921872;29;20051;-86
2023/06/06 02:20:34;;;;;;;9.20;6.40;;;;;;;18.75;100.00;100772.50;4921555;29;20406;-86
2023/06/06 02:23:02;;;;;;;9.45;6.82;;;;;;;18.69;100.00;100782.97;4920944;29;20398;-86
2023/06/06 02:25:33;;;;;;;11.55;7.18;;;;;;;18.61;100.00;100772.69;4920937;29;20047;-86
2023/06/06 02:28:03;;;;;;;10.73;7.68;;;;;;;18.69;100.00;100769.09;4921188;29;20054;-86
2023/06/06 02:30:32;;;;;;;10.13;6.90;;;;;;;18.73;100.00;100766.47;4921563;29;20043;-86
2023/06/06 02:33:00;;;;;;;12.35;7.43;;;;;;;18.73;100.00;100769.25;4921576;29;20051;-86
2023/06/06 02:35:28;;;;;;;12.48;8.20;;;;;;;18.58;100.00;100768.63;4921191;29;20059;-75
2023/06/06 02:37:57;;;;;;;10.65;7.50;;;;;;;18.67;100.00;100763.06;4920908;29;20056;-86
2023/06/06 02:40:25;;;;;;;13.48;8.38;;;;;;;18.58;100.00;100770.59;4920829;29;20513;-86
2023/06/06 02:42:53;;;;;;;11.10;8.05;;;;;;;18.65;100.00;100757.88;4921065;29;20047;-87
2023/06/06 02:45:22;;;;;;;11.93;7.60;;;;;;;18.57;100.00;100755.91;4923278;29;20059;-87
2023/06/06 02:47:50;;;;;;;11.38;7.65;;;;;;;18.60;100.00;100755.28;4924897;29;20047;-86
2023/06/06 02:50:20;;;;;;;11.48;8.43;;;;;;;18.73;100.00;100756.19;4924777;29;20521;-86
2023/06/06 02:52:48;;;;;;;11.50;7.88;;;;;;;18.67;100.00;100761.09;4924506;29;20461;-86
2023/06/06 02:55:16;;;;;;;10.57;7.60;;;;;;;18.65;100.00;100768.94;4924633;29;20047;-86
2023/06/06 02:57:44;;;;;;;9.82;7.25;;;;;;;18.68;100.00;100759.16;4924280;29;20181;-86
2023/06/06 03:00:13;;;;;;;10.55;6.60;;;;;;;18.59;100.00;100755.59;4924619;29;20059;-86
2023/06/06 03:02:41;;;;;;;9.35;6.40;;;;;;;18.50;100.00;100750.06;4925050;29;20058;-86
2023/06/06 03:05:11;;;;;;;10.18;6.55;;;;;;;18.46;100.00;100752.69;4924021;29;20066;-86
2023/06/06 03:07:40;;;;;;;9.07;6.25;;;;;;;18.37;100.00;100747.16;4924326;29;20047;-86
2023/06/06 03:10:09;;;;;;;10.40;6.03;;;;;;;18.38;100.00;100753.53;4923544;29;20414;-86
2023/06/06 03:12:43;;;;;;;8.30;5.93;;;;;;;18.39;100.00;100750.41;4924584;29;20051;-85
2023/06/06 03:15:12;;;;;;;6.85;5.68;;;;;;;18.38;100.00;100748.00;4924559;29;20067;-86
2023/06/06 03:17:43;;;;;;;7.72;5.95;;;;;;;18.24;100.00;100746.22;4940729;29;20494;-85
2023/06/06 03:20:13;;;;;;;9.77;6.32;;;;;;;18.31;100.00;100750.44;4939831;29;20498;-85
2023/06/06 03:22:45;;;;;;;6.60;5.30;;;;;;;18.16;100.00;100747.03;4940041;29;20519;-86
2023/06/06 03:25:15;;;;;;;9.40;5.53;;;;;;;18.27;100.00;100745.56;4939918;29;20050;-86
2023/06/06 03:27:46;;;;;;;9.60;5.75;;;;;;;18.26;100.00;100743.13;4940019;29;20406;-86
2023/06/06 03:30:15;;;;;;;10.35;6.30;;;;;;;18.23;100.00;100743.78;4939761;29;20063;-86
2023/06/06 03:32:43;;;;;;;7.28;5.40;;;;;;;18.15;100.00;100731.56;4939806;29;20039;-86
2023/06/06 03:35:14;;;;;;;7.60;5.35;;;;;;;18.09;100.00;100743.97;4924173;29;20043;-86
2023/06/06 03:37:43;;;;;;;7.35;5.22;;;;;;;18.05;100.00;100743.78;4955743;29;20063;-86
2023/06/06 03:40:12;;;;;;;10.93;5.60;;;;;;;18.04;100.00;100742.13;4955716;29;20051;-86
2023/06/06 03:42:40;;;;;;;8.13;5.30;;;;;;;17.98;100.00;100733.19;4956684;29;20520;-87
2023/06/06 03:45:09;;;;;;;7.88;5.18;;;;;;;17.91;100.00;100730.09;4923775;29;20050;-86
2023/06/06 03:47:38;;;;;;;11.75;6.40;;;;;;;17.92;100.00;100740.03;4939722;29;20047;-86
2023/06/06 03:50:07;;;;;;;7.65;5.45;;;;;;;18.00;100.00;100736.44;4924372;29;20163;-86
2023/06/06 03:52:35;;;;;;;9.18;5.93;;;;;;;18.14;100.00;100735.50;4939480;29;20414;-87
2023/06/06 03:55:03;;;;;;;9.52;5.68;;;;;;;18.23;100.00;100747.34;4923130;28;20047;-86
2023/06/06 03:57:31;;;;;;;10.73;5.28;;;;;;;18.23;100.00;100739.03;4939289;29;20532;-86
2023/06/06 04:00:00;;;;;;;8.27;6.30;;;;;;;18.25;100.00;100728.47;4956555;29;20521;-86
2023/06/06 04:02:29;;;;;;;6.60;5.35;;;;;;;18.23;100.00;100739.03;4956479;29;20054;-86
2023/06/06 04:05:01;;;;;;;8.45;5.10;;;;;;;18.11;100.00;100730.59;4923282;29;20055;-86
2023/06/06 04:07:29;;;;;;;6.93;5.50;;;;;;;18.14;100.00;100729.94;4956342;29;20047;-86
2023/06/06 04:09:58;;;;;;;10.63;5.95;;;;;;;18.14;100.00;100729.94;4939279;29;20044;-86
2023/06/06 04:12:26;;;;;;;7.70;5.88;;;;;;;18.00;100.00;100741.97;4956279;29;20055;-86
2023/06/06 04:14:53;;;;;;;7.68;5.32;;;;;;;17.91;100.00;100732.03;4956136;29;20482;-86
2023/06/06 04:17:24;;;;;;;8.25;5.47;;;;;;;17.91;100.00;100738.41;4939082;29;20070;-86
2023/06/06 04:19:53;;;;;;;9.05;5.70;;;;;;;17.88;100.00;100739.03;4938597;29;20055;-86
2023/06/06 04:22:25;;;;;;;8.52;6.13;;;;;;;17.97;100.00;100737.09;4939323;29;20043;-87
2023/06/06 04:24:53;;;;;;;9.68;5.97;;;;;;;17.94;100.00;100732.19;4956246;29;20058;-87
2023/06/06 04:27:23;;;;;;;8.55;5.88;;;;;;;18.11;100.00;100738.91;4956448;29;20047;-86
2023/06/06 04:29:53;;;;;;;10.73;6.40;;;;;;;18.21;100.00;100735.81;4954901;29;20075;-86
2023/06/06 04:32:23;;;;;;;8.32;5.68;;;;;;;18.38;100.00;100750.75;4939160;29;20054;-86
2023/06/06 04:34:52;;;;;;;11.70;6.95;;;;;;;18.56;100.00;100745.19;4938833;29;20051;-86
2023/06/06 04:37:24;;;;;;;8.57;6.13;;;;;;;18.59;100.00;100750.03;4923512;29;20051;-86
2023/06/06 04:39:52;;;;;;;10.38;6.57;;;;;;;18.74;100.00;100748.69;4938670;29;20406;-86
2023/06/06 04:42:23;;;;;;;8.73;6.28;;;;;;;18.85;100.00;100746.34;4938644;29;20059;-87
2023/06/06 04:44:51;;;;;;;10.32;6.47;;;;;;;19.01;100.00;100744.66;4922719;29;20051;-86
2023/06/06 04:47:20;;;;;;;9.90;5.60;;;;;;;19.18;100.00;100752.13;4955924;29;20062;-87
2023/06/06 04:49:48;;;;;;;9.57;6.43;;;;;;;19.30;100.00;100756.94;4938593;29;20046;-87
2023/06/06 04:52:18;;;;;;;12.40;8.10;;;;;;;19.23;100.00;100748.34;4938646;29;20069;-87
2023/06/06 04:54:46;;;;;;;11.18;6.70;;;;;;;19.36;100.00;100756.75;4938659;29;20051;-86
2023/06/06 04:57:15;;;;;;;10.40;6.80;;;;;;;19.26;100.00;100753.19;4961580;28;20046;-86
2023/06/06 04:59:49;;;;;;;9.00;6.20;;;;;;;19.37;100.00;100755.59;4961552;28;20502;-85
2023/06/06 05:02:20;;;;;;;14.40;6.28;;;;;;;19.26;100.00;100755.19;4954946;29;20114;-86
2023/06/06 05:04:52;;;;;;;10.68;6.00;;;;;;;19.24;100.00;100755.50;4956253;28;20039;-85
2023/06/06 05:07:24;;;;;;;11.70;6.47;;;;;;;19.18;100.00;100759.63;4953962;28;20379;-85
2023/06/06 05:09:53;;;;;;;8.10;5.57;;;;;;;19.37;100.00;100761.16;4960796;28;20062;-86
2023/06/06 05:12:22;;;;;;;10.02;5.65;;;;;;;19.51;100.00;100756.19;4933922;29;20061;-85
2023/06/06 05:14:51;;;;;;;10.98;6.47;;;;;;;19.63;100.00;100758.19;4937737;29;20055;-86
2023/06/06 05:17:20;;;;;;;8.48;5.50;;;;;;;19.64;100.00;100768.16;4954840;29;20054;-85
2023/06/06 05:19:49;;;;;;;14.63;5.60;;;;;;;19.78;100.00;100761.50;4962051;28;20047;-85
2023/06/06 05:22:18;;;;;;;9.07;6.07;;;;;;;19.90;100.00;100766.34;4952780;28;20039;-85
2023/06/06 05:24:46;;;;;;;8.32;5.78;;;;;;;19.85;100.00;100765.38;4955761;28;20058;-85
2023/06/06 05:27:14;;;;;;;10.00;6.20;;;;;;;19.82;100.00;100760.50;4960116;28;20070;-85
2023/06/06 05:29:42;;;;;;;7.95;5.78;;;;;;;20.16;100.00;100759.75;4954640;29;20768;-85
2023/06/06 05:32:12;;;;;;;10.38;6.13;;;;;;;20.40;100.00;100757.06;4937545;29;20048;-85
2023/06/06 05:34:41;;;;;;;10.60;6.82;;;;;;;20.35;100.00;100760.06;4953475;28;20058;-82
2023/06/06 05:37:09;;;;;;;10.88;6.93;;;;;;;20.22;100.00;100761.16;4908195;28;20055;-79
2023/06/06 05:39:37;;;;;;;10.10;6.32;;;;;;;20.49;100.00;100753.38;4936616;28;20054;-90
2023/06/06 05:42:06;;;;;;;9.85;6.07;;;;;;;20.76;100.00;100762.22;4922916;29;20051;-90
2023/06/06 05:44:35;;;;;;;9.40;6.45;;;;;;;20.75;100.00;100755.03;4922695;29;20059;-89
2023/06/06 05:47:05;;;;;;;9.40;5.45;;;;;;;20.85;99.74;100753.81;4904630;29;20058;-91
2023/06/06 05:49:33;;;;;;;9.00;6.15;;;;;;;20.83;100.00;100758.88;4924782;28;20074;-90
2023/06/06 05:52:02;;;;;;;8.20;5.60;;;;;;;20.94;99.73;100772.03;4923923;29;20058;-90
2023/06/06 05:54:30;;;;;;;7.93;5.00;;;;;;;21.05;98.24;100764.03;4922459;29;20585;-90
2023/06/06 05:57:22;;;;;;;8.77;5.13;;;;;;;21.07;98.62;100758.94;4916064;28;20051;-90
2023/06/06 05:59:50;;;;;;;8.05;5.25;;;;;;;21.24;98.26;100759.84;4925888;28;20062;-90
2023/06/06 06:02:20;;;;;;;7.63;4.90;;;;;;;21.33;97.45;100760.56;4940176;28;20038;-90
2023/06/06 06:04:52;;;;;;;7.63;4.93;;;;;;;21.40;95.13;100762.72;4905871;29;20055;-89
2023/06/06 06:07:23;;;;;;;7.63;5.03;;;;;;;21.55;93.89;100760.41;4934745;29;20059;-91
2023/06/06 06:09:52;;;;;;;8.18;5.57;;;;;;;21.70;93.17;100764.47;4919875;29;20047;-89
2023/06/06 06:12:20;;;;;;;6.72;4.88;;;;;;;21.58;94.23;100773.63;4924571;29;20055;-92
2023/06/06 06:14:50;;;;;;;6.32;5.05;;;;;;;21.59;94.10;100755.72;4940106;29;20078;-93
2023/06/06 06:17:20;;;;;;;7.30;4.90;;;;;;;21.57;93.82;100766.44;4922780;29;20058;-93
2023/06/06 06:19:49;;;;;;;7.47;5.10;;;;;;;21.52;92.35;100769.44;4937844;29;20051;-88
2023/06/06 06:22:17;;;;;;;7.10;4.88;;;;;;;21.50;91.93;100767.00;4937035;29;20074;-90
2023/06/06 06:24:46;;;;;;;11.18;5.32;;;;;;;21.57;92.12;100777.56;4927803;29;20758;-91
2023/06/06 06:27:15;;;;;;;9.23;5.15;;;;;;;21.55;91.95;100779.91;4915460;29;20047;-90
2023/06/06 06:29:45;;;;;;;7.65;4.55;;;;;;;21.68;92.20;100784.28;4931677;28;20516;-91
2023/06/06 06:32:13;;;;;;;6.65;4.57;;;;;;;21.86;89.91;100784.03;4920257;29;20066;-89
2023/06/06 06:34:41;;;;;;;7.70;5.20;;;;;;;21.93;90.27;100789.81;4922425;29;20047;-91
2023/06/06 06:37:10;;;;;;;9.07;4.65;;;;;;;21.98;88.09;100781.19;4920704;29;20059;-91
2023/06/06 06:39:38;;;;;;;6.95;4.53;;;;;;;22.00;88.32;100792.78;4920528;29;20055;-91
2023/06/06 06:42:07;;;;;;;6.28;4.53;;;;;;;22.02;87.99;100789.66;4912845;28;20059;-92
2023/06/06 06:44:49;;;;;;;7.05;4.22;;;;;;;21.88;88.34;100788.09;4923884;28;20047;-89
2023/06/06 06:47:19;;;;;;;7.30;4.07;;;;;;;21.74;88.87;100782.91;4919666;29;20062;-89
2023/06/06 06:49:48;;;;;;;5.78;4.15;;;;;;;21.58;89.31;100795.88;4919193;29;20059;-89
2023/06/06 06:52:17;;;;;;;6.50;4.20;;;;;;;21.59;90.94;100805.84;4905631;28;20533;-90
2023/06/06 06:54:48;;;;;;;8.30;4.45;;;;;;;21.61;91.08;100800.78;4931527;28;20047;-93
2023/06/06 06:57:16;;;;;;;4.90;4.00;;;;;;;21.80;89.07;100802.16;4917965;28;20050;-90
2023/06/06 06:59:45;;;;;;;6.72;3.83;;;;;;;21.87;87.73;100799.56;4939718;28;20405;-95
2023/06/06 07:02:14;;;;;;;4.78;4.03;;;;;;;21.97;87.16;100813.03;4920764;29;20055;-89
2023/06/06 07:04:45;;;;;;;5.32;4.25;;;;;;;21.88;87.43;100807.59;4936541;29;20047;-89
2023/06/06 07:07:15;;;;;;;7.60;3.70;;;;;;;21.94;87.14;100813.72;4920256;29;20047;-90
2023/06/06 07:09:43;;;;;;;7.95;3.92;;;;;;;22.00;86.60;100800.34;4918321;29;20044;-88
2023/06/06 07:12:12;;;;;;;6.53;3.83;;;;;;;22.04;85.88;100797.69;4952894;28;20055;-89
2023/06/06 07:14:40;;;;;;;6.30;3.97;;;;;;;22.23;85.11;100797.81;4919183;29;20052;-89
2023/06/06 07:17:08;;;;;;;7.07;3.67;;;;;;;22.25;86.30;100800.25;4920576;28;20051;-89
2023/06/06 07:19:36;;;;;;;4.93;3.42;;;;;;;22.19;86.16;100802.47;4964159;28;20478;-90
2023/06/06 07:22:05;;;;;;;4.55;3.08;;;;;;;22.27;84.22;100801.53;4920824;29;20047;-89
2023/06/06 07:24:33;;;;;;;5.72;3.42;;;;;;;22.28;83.55;100811.50;4920165;29;20047;-91
2023/06/06 07:27:02;;;;;;;5.57;2.95;;;;;;;22.24;83.96;100798.66;4935520;29;20043;-93
2023/06/06 07:29:30;;;;;;;4.07;3.15;;;;;;;22.25;83.41;100789.91;4905142;29;20048;-92
2023/06/06 07:31:58;;;;;;;4.82;3.10;;;;;;;22.08;84.02;100796.59;4918606;29;20048;-94
2023/06/06 07:34:27;;;;;;;4.05;2.65;;;;;;;22.10;84.65;100791.47;4921042;29;20054;-91
2023/06/06 07:36:55;;;;;;;4.03;3.45;;;;;;;22.23;84.65;100792.25;4923244;29;20062;-91
2023/06/06 07:39:23;;;;;;;4.18;3.17;;;;;;;22.33;84.07;100795.69;4924079;29;20063;-92
2023/06/06 07:41:51;;;;;;;4.00;2.90;;;;;;;22.44;83.94;100801.56;4923566;29;20055;-90
2023/06/06 07:44:20;;;;;;;3.40;2.88;;;;;;;22.55;82.97;100797.13;4920191;29;20055;-92
2023/06/06 07:46:48;;;;;;;3.88;2.60;;;;;;;22.50;83.13;100798.19;4933783;29;20047;-92
2023/06/06 07:49:16;;;;;;;4.57;3.30;;;;;;;22.38;81.64;100804.59;4907293;29;20502;-92
2023/06/06 07:51:46;;;;;;;3.20;2.90;;;;;;;22.41;83.17;100801.13;4950000;28;20047;-91
2023/06/06 07:54:14;;;;;;;4.75;2.78;;;;;;;22.45;82.43;100798.44;4923260;29;20075;-92
2023/06/06 07:56:44;;;;;;;4.05;3.08;;;;;;;22.57;81.61;100802.34;4938643;28;20433;-91
2023/06/06 07:59:13;;;;;;;3.30;2.90;;;;;;;22.61;80.90;100795.69;4922728;29;20047;-92
2023/06/06 08:01:41;;;;;;;7.05;3.20;;;;;;;22.77;81.00;100801.28;4919836;29;20047;-92
2023/06/06 08:04:09;;;;;;;3.72;2.70;;;;;;;22.98;80.32;100794.66;4922602;29;20051;-93
2023/06/06 08:06:42;;;;;;;4.30;2.97;;;;;;;23.18;78.47;100800.31;4938496;29;20055;-91
2023/06/06 08:09:10;;;;;;;3.50;2.92;;;;;;;23.11;78.36;100789.75;4926842;29;20046;-92
2023/06/06 08:11:38;;;;;;;4.35;3.33;;;;;;;23.04;77.32;100796.00;4937812;29;20047;-88
2023/06/06 08:14:07;;;;;;;3.55;3.05;;;;;;;22.95;77.84;100792.56;4918845;29;20063;-85
2023/06/06 08:16:35;;;;;;;2.65;2.20;;;;;;;22.87;78.34;100788.00;4957162;28;20047;-87
2023/06/06 08:19:04;;;;;;;5.18;3.20;;;;;;;22.59;79.22;100784.09;4939179;29;20077;-88
2023/06/06 08:21:36;;;;;;;3.58;2.97;;;;;;;22.86;79.80;100786.38;4936011;29;20051;-86
2023/06/06 08:24:05;;;;;;;4.45;3.03;;;;;;;23.08;78.42;100785.72;4918797;29;20074;-88
2023/06/06 08:26:34;;;;;;;9.23;3.63;;;;;;;23.12;77.02;100785.00;4953371;28;20043;-88
2023/06/06 08:29:02;;;;;;;5.45;3.35;;;;;;;23.39;77.59;100777.69;4937652;29;20047;-88
2023/06/06 08:31:52;;;;;;;5.15;4.00;;;;;;;23.46;77.25;100779.84;4938378;28;20055;-92
2023/06/06 08:34:21;;;;;;;6.32;3.80;;;;;;;23.74;77.05;100781.66;4927035;28;20049;-93
2023/06/06 08:36:50;;;;;;;6.25;4.07;;;;;;;23.67;75.14;100795.47;4937904;28;20517;-88
2023/06/06 08:39:19;;;;;;;6.97;2.97;;;;;;;23.51;75.76;100795.50;4929051;28;20057;-88
2023/06/06 08:41:53;;;;;;;4.18;3.67;;;;;;;23.42;75.82;100787.34;4911972;29;20079;-88
2023/06/06 08:44:22;;;;;;;5.30;3.50;;;;;;;23.35;75.04;100794.38;4943428;28;20051;-92
2023/06/06 08:46:53;;;;;;;5.55;3.08;;;;;;;23.49;75.04;100784.69;4920717;29;20054;-89
2023/06/06 08:49:21;;;;;;;6.57;3.08;;;;;;;23.65;74.72;100793.03;4931162;28;20035;-89
2023/06/06 08:51:50;;;;;;;4.78;3.70;;;;;;;23.68;73.87;100794.28;4939957;28;20047;-86
2023/06/06 08:54:19;;;;;;;5.38;3.58;;;;;;;23.68;74.20;100792.31;4951820;28;20054;-89
2023/06/06 08:56:48;;;;;;;7.78;3.70;;;;;;;23.68;73.30;100795.09;4957096;28;20053;-90
2023/06/06 08:59:16;;;;;;;5.53;4.25;;;;;;;23.75;72.28;100786.06;4919973;28;20039;-93
2023/06/06 09:01:47;;;;;;;5.40;4.13;;;;;;;23.88;74.97;100787.56;4923196;29;20059;-91
2023/06/06 09:04:16;;;;;;;4.40;3.55;;;;;;;24.19;73.70;100800.97;4921458;29;20043;-91
2023/06/06 09:06:45;;;;;;;4.35;3.30;;;;;;;24.42;71.70;100801.84;4921172;29;20055;-93
2023/06/06 09:09:13;;;;;;;4.93;3.33;;;;;;;24.51;70.69;100803.56;4923258;28;20059;-93
2023/06/06 09:11:41;;;;;;;4.38;3.40;;;;;;;24.45;68.79;100802.25;4922559;29;20486;-91
2023/06/06 09:14:09;;;;;;;5.18;3.70;;;;;;;24.28;70.38;100795.94;4915652;29;20043;-91
2023/06/06 09:16:39;;;;;;;5.53;3.20;;;;;;;24.23;69.75;100793.44;4922638;28;20544;-92
2023/06/06 09:19:08;;;;;;;5.32;3.03;;;;;;;24.29;69.73;100794.75;4905119;29;20082;-91
2023/06/06 09:21:36;;;;;;;5.75;3.20;;;;;;;24.37;68.84;100790.94;4916926;29;20459;-92
2023/06/06 09:24:04;;;;;;;5.88;4.00;;;;;;;24.51;69.28;100784.00;4902535;29;20058;-92
2023/06/06 09:26:34;;;;;;;6.22;3.35;;;;;;;24.53;69.16;100790.03;4931893;29;20518;-91
2023/06/06 09:29:07;;;;;;;4.40;3.45;;;;;;;24.69;72.99;100778.75;4927787;29;20051;-92
2023/06/06 09:31:38;;;;;;;8.20;4.78;;;;;;;24.62;68.08;100786.97;4920828;29;20063;-91
2023/06/06 09:34:08;;;;;;;5.65;3.60;;;;;;;24.51;70.00;100781.19;4921260;29;20063;-93
2023/06/06 09:36:43;;;;;;;4.90;4.10;;;;;;;24.36;70.72;100783.75;4937524;28;20059;-92
2023/06/06 09:39:15;;;;;;;5.70;3.97;;;;;;;24.33;70.21;100778.88;4923534;29;20486;-93
2023/06/06 09:41:47;;;;;;;4.75;3.63;;;;;;;24.22;70.76;100767.50;4929661;29;20050;-91
2023/06/06 09:44:23;;;;;;;4.53;3.80;;;;;;;24.32;70.32;100777.25;4944574;28;20490;-92
2023/06/06 09:47:00;;;;;;;5.72;3.80;;;;;;;24.12;69.45;100768.09;4930407;28;20410;-94
2023/06/06 09:49:35;;;;;;;4.75;3.55;;;;;;;24.22;69.93;100778.69;4913117;29;20047;-92
2023/06/06 09:52:04;;;;;;;3.80;3.30;;;;;;;24.05;70.04;100767.91;4919961;29;20410;-92
2023/06/06 09:54:33;;;;;;;4.05;3.03;;;;;;;24.23;68.85;100773.88;4935989;29;20055;-94
2023/06/06 09:57:13;;;;;;;4.53;3.58;;;;;;;24.04;68.88;100769.88;4907156;29;20494;-93
2023/06/06 09:59:44;;;;;;;3.10;2.80;;;;;;;23.74;68.92;100759.28;4901766;29;20529;-93
2023/06/06 10:02:19;;;;;;;4.05;3.33;;;;;;;23.95;71.44;100760.94;4916885;29;20047;-92
2023/06/06 10:04:48;;;;;;;4.75;3.58;;;;;;;24.05;71.11;100759.53;4921795;28;20044;-92
2023/06/06 10:07:17;;;;;;;4.75;3.55;;;;;;;24.11;71.02;100763.69;4938934;28;20054;-91
2023/06/06 10:09:46;;;;;;;5.03;3.90;;;;;;;24.19;70.54;100761.84;4938744;28;20058;-92
2023/06/06 10:12:15;;;;;;;4.85;3.17;;;;;;;24.38;70.69;100755.38;4956080;28;20047;-92
2023/06/06 10:14:44;;;;;;;4.93;3.80;;;;;;;24.45;69.35;100763.09;4940126;28;20054;-92
2023/06/06 10:17:13;;;;;;;5.72;3.90;;;;;;;24.46;69.76;100753.53;4932912;29;20052;-91
2023/06/06 10:19:41;;;;;;;6.45;4.40;;;;;;;24.37;69.15;100753.78;4907701;29;20063;-92
2023/06/06 10:22:10;;;;;;;6.15;4.10;;;;;;;24.38;68.66;100759.00;4925988;28;20047;-93
2023/06/06 10:24:40;;;;;;;4.47;3.65;;;;;;;24.68;69.94;100755.53;4905688;29;20051;-92
2023/06/06 10:27:18;;;;;;;6.10;4.82;;;;;;;24.69;68.38;100751.56;4904160;29;20048;-91
2023/06/06 10:29:51;;;;;;;7.93;4.68;;;;;;;24.51;69.60;100756.03;4946185;29;20126;-92
2023/06/06 10:33:02;;;;;;;7.03;4.32;;;;;;;24.69;69.23;100759.16;4922333;29;20058;-94
2023/06/06 10:35:33;;;;;;;5.60;4.28;;;;;;;24.67;69.06;100753.09;4905952;28;20054;-92
2023/06/06 10:38:07;;;;;;;6.25;4.03;;;;;;;24.56;68.09;100753.75;4919230;28;20054;-93
2023/06/06 10:41:00;;;;;;;4.40;4.00;;;;;;;24.45;70.84;100746.31;4925360;28;20141;-94
2023/06/06 10:43:34;;;;;;;7.72;4.20;;;;;;;24.55;70.72;100754.13;4934157;28;20044;-92
2023/06/06 10:46:03;;;;;;;6.88;4.80;;;;;;;24.50;69.11;100744.03;4921273;29;20062;-93
2023/06/06 10:48:38;;;;;;;8.15;5.10;;;;;;;24.53;68.66;100748.06;4919658;29;20062;-92
2023/06/06 10:51:07;;;;;;;6.82;4.80;;;;;;;24.58;68.54;100742.16;4920945;29;20087;-92
2023/06/06 10:53:35;;;;;;;7.50;5.20;;;;;;;24.83;68.60;100739.81;4921873;29;20054;-92
2023/06/06 10:56:07;;;;;;;6.40;4.47;;;;;;;25.09;68.43;100743.81;4921398;29;20058;-93
2023/06/06 10:58:38;;;;;;;7.75;5.40;;;;;;;24.99;66.65;100735.28;4923529;29;20051;-94
2023/06/06 11:01:06;;;;;;;8.48;4.88;;;;;;;25.13;67.01;100731.88;4921575;29;20051;-94
2023/06/06 11:03:36;;;;;;;6.95;5.18;;;;;;;25.23;66.74;100737.63;4919559;29;20043;-93
2023/06/06 11:06:11;;;;;;;8.32;5.03;;;;;;;25.28;66.42;100718.91;4922711;28;20050;-93
2023/06/06 11:08:48;;;;;;;6.50;4.93;;;;;;;25.54;66.27;100726.50;4943596;28;20573;-93
2023/06/06 11:11:18;;;;;;;7.85;4.97;;;;;;;25.71;66.43;100722.28;4921182;29;20499;-94
2023/06/06 11:14:01;;;;;;;5.65;4.60;;;;;;;25.76;62.97;100726.78;4909150;29;20051;-94
2023/06/06 11:16:39;;;;;;;9.00;5.10;;;;;;;25.56;63.99;100735.31;4906285;29;20491;-94
2023/06/06 11:19:08;;;;;;;7.70;5.20;;;;;;;25.42;63.44;100733.09;4905075;29;20491;-93
2023/06/06 11:21:38;;;;;;;6.68;5.03;;;;;;;25.76;65.58;100721.97;4905105;29;20047;-90
2023/06/06 11:24:08;;;;;;;6.13;5.00;;;;;;;25.56;63.65;100717.72;4930106;29;20055;-94
2023/06/06 11:26:38;;;;;;;7.60;5.28;;;;;;;25.65;62.97;100712.63;4943964;28;20514;-96
2023/06/06 11:29:11;;;;;;;7.80;4.85;;;;;;;26.07;61.43;100715.50;4912709;29;20047;-95
2023/06/06 11:31:40;;;;;;;7.68;5.07;;;;;;;26.16;60.68;100713.19;4922774;29;20051;-93
2023/06/06 11:34:10;;;;;;;7.32;4.90;;;;;;;26.66;61.22;100712.91;4916492;29;20051;-94